Time;durP1;ratioP1;P1;durP2;ratioP2;P2;SDS_P1;SDS_P2;PMS_P1;PMS_P2;Temp;Humidity;BMP_temperature;BMP_pressure;BME280_temperature;BME280_humidity;BME280_pressure;Samples;Min_cycle;Max_cycle;Signal;HPM_P1;HPM_P2
2021/09/26 03:15:15;;;;;;;;;;;;;;;5.33;94.36;99532.63;5196607;22;20491;-84
2021/09/26 03:17:41;;;;;;;;;;;;;;;5.37;94.64;99533.41;5074573;28;20354;-92
2021/09/26 03:20:06;;;;;;;;;;;;;;;5.33;94.55;99529.13;5092986;28;20370;-89
2021/09/26 03:22:31;;;;;;;;;;;;;;;5.40;94.82;99533.34;5093349;28;19967;-83
2021/09/26 03:24:57;;;;;;;;;;;;;;;5.43;94.30;99539.38;5092999;28;19962;-89
2021/09/26 03:27:22;;;;;;;;;;;;;;;5.38;94.41;99545.66;5075191;28;20300;-90
2021/09/26 03:29:47;;;;;;;;;;;;;;;5.41;94.68;99537.69;5065128;28;19920;-84
2021/09/26 03:32:12;;;;;;;;;;;;;;;5.50;97.18;99540.06;5092771;28;20255;-86
2021/09/26 03:34:38;;;;;;;;;;;;;;;5.61;99.67;99545.06;5093195;28;20282;-93
2021/09/26 03:37:04;;;;;;;;;;;;;;;5.65;100.00;99538.81;5092979;28;19927;-92
2021/09/26 03:39:29;;;;;;;;;;;;;;;5.64;100.00;99544.97;5065907;28;20275;-89
2021/09/26 03:41:54;;;;;;;;;;;;;;;5.66;100.00;99539.66;5068267;28;19920;-94
2021/09/26 03:44:20;;;;;;;;;;;;;;;5.61;100.00;99538.00;5092593;28;19916;-84
2021/09/26 03:46:45;;;;;;;;;;;;;;;5.55;100.00;99537.31;5092898;28;19923;-83
2021/09/26 03:49:10;;;;;;;;;;;;;;;5.58;100.00;99526.72;5092777;28;19977;-82
2021/09/26 03:51:36;;;;;;;;;;;;;;;5.43;99.72;99522.75;5092702;28;19917;-83
2021/09/26 03:54:01;;;;;;;;;;;;;;;5.44;100.00;99521.81;5092991;28;19977;-84
2021/09/26 03:56:28;;;;;;;;;;;;;;;5.45;99.70;99513.06;5092864;28;20442;-85
2021/09/26 03:58:53;;;;;;;;;;;;;;;5.50;99.96;99518.19;5091218;28;19916;-84
2021/09/26 04:01:18;;;;;;;;;;;;;;;5.43;99.65;99510.47;5092634;28;19927;-84
2021/09/26 04:03:44;;;;;;;;;;;;;;;5.62;100.00;99513.47;5092507;28;19923;-93
2021/09/26 04:06:11;;;;;;;;;;;;;;;5.83;100.00;99512.00;5093327;28;19920;-93
2021/09/26 04:08:40;;;;;;;;;;;;;;;5.72;100.00;99518.47;5092056;28;19916;-93
2021/09/26 04:11:06;;;;;;;;;;;;;;;5.64;100.00;99523.94;5093309;28;19969;-85
2021/09/26 04:13:31;;;;;;;;;;;;;;;5.73;100.00;99525.47;5092612;28;19916;-86
2021/09/26 04:15:56;;;;;;;;;;;;;;;5.68;100.00;99520.34;5073605;28;19950;-85
2021/09/26 04:18:22;;;;;;;;;;;;;;;5.56;100.00;99526.78;5074568;28;19920;-90
2021/09/26 04:20:47;;;;;;;;;;;;;;;5.60;100.00;99528.44;5091642;28;19920;-90
2021/09/26 04:23:12;;;;;;;;;;;;;;;5.49;100.00;99527.84;5066441;28;19912;-87
2021/09/26 04:25:37;;;;;;;;;;;;;;;5.58;100.00;99532.84;5065062;28;19963;-92
2021/09/26 04:28:03;;;;;;;;;;;;;;;5.59;100.00;99531.09;5073016;28;19920;-88
2021/09/26 04:30:28;;;;;;;;;;;;;;;5.59;100.00;99529.31;5065822;28;19981;-90
2021/09/26 04:32:53;;;;;;;;;;;;;;;5.45;100.00;99537.56;5092126;28;19916;-85
2021/09/26 04:35:19;;;;;;;;;;;;;;;5.48;100.00;99531.38;5092290;28;19912;-93
2021/09/26 04:37:44;;;;;;;;;;;;;;;5.48;100.00;99525.25;5069195;28;19916;-91
2021/09/26 04:40:10;;;;;;;;;;;;;;;5.48;100.00;99517.38;5096340;28;19927;-90
2021/09/26 04:42:35;;;;;;;;;;;;;;;5.50;100.00;99521.66;5077926;28;20006;-87
2021/09/26 04:45:00;;;;;;;;;;;;;;;5.51;100.00;99520.78;5067585;28;20019;-85
2021/09/26 04:47:26;;;;;;;;;;;;;;;5.39;100.00;99515.84;5096507;28;20423;-84
2021/09/26 04:49:51;;;;;;;;;;;;;;;5.38;100.00;99519.38;5096018;28;19920;-90
2021/09/26 04:52:16;;;;;;;;;;;;;;;5.52;100.00;99529.50;5078095;28;19920;-84
2021/09/26 04:54:42;;;;;;;;;;;;;;;5.44;100.00;99534.97;5096072;28;20365;-87
2021/09/26 04:57:07;;;;;;;;;;;;;;;5.39;99.98;99536.84;5077941;28;19931;-93
2021/09/26 04:59:32;;;;;;;;;;;;;;;5.40;100.00;99533.34;5076794;28;20386;-85
2021/09/26 05:01:57;;;;;;;;;;;;;;;5.52;99.77;99538.28;5095979;28;20351;-88
2021/09/26 05:04:23;;;;;;;;;;;;;;;5.42;99.11;99536.78;5096004;28;19935;-85
2021/09/26 05:06:48;;;;;;;;;;;;;;;5.34;99.40;99546.63;5095995;28;19916;-87
2021/09/26 05:09:13;;;;;;;;;;;;;;;5.26;98.87;99552.06;5069381;28;19919;-93
2021/09/26 12:50:51;;;;;;;;;;;;;;;5.72;99.63;99670.97;4987428;28;20328;-84
2021/09/26 12:53:22;;;;;;;;;;;;;;;5.73;99.36;99667.44;4992944;28;19925;-93
2021/09/26 12:55:48;;;;;;;;;;;;;;;5.75;99.64;99663.00;4993194;28;19918;-87
2021/09/26 12:58:32;;;;;;;;;;;;;;;5.72;99.69;99670.97;4995985;28;19937;-89
2021/09/26 13:01:27;;;;;;;;;;;;;;;5.71;100.00;99663.97;4997900;28;20008;-86
2021/09/26 13:03:58;;;;;;;;;;;;;;;5.76;100.00;99667.34;4986341;28;20005;-88
2021/09/26 13:06:28;;;;;;;;;;;;;;;5.87;99.69;99670.59;4997408;28;19922;-86
2021/09/26 13:08:54;;;;;;;;;;;;;;;5.74;99.76;99666.53;4998898;28;19992;-85
2021/09/26 13:11:22;;;;;;;;;;;;;;;5.71;99.83;99659.59;4998290;28;20365;-93
2021/09/26 13:14:08;;;;;;;;;;;;;;;5.78;100.00;99662.94;4971930;28;19930;-90
2021/09/26 13:16:37;;;;;;;;;;;;;;;5.70;100.00;99662.25;5009920;28;19918;-91
2021/09/26 13:19:21;;;;;;;;;;;;;;;5.74;100.00;99663.91;4996691;28;19921;-92
2021/09/26 13:21:59;;;;;;;;;;;;;;;5.75;100.00;99669.13;4998614;28;20044;-90
2021/09/26 13:24:25;;;;;;;;;;;;;;;5.79;100.00;99662.91;4996488;28;19987;-95
2021/09/26 13:26:50;;;;;;;;;;;;;;;5.82;100.00;99668.06;4996349;28;19926;-86
2021/09/26 13:29:30;;;;;;;;;;;;;;;5.74;99.78;99670.00;4997607;28;19961;-94
2021/09/26 13:31:57;;;;;;;;;;;;;;;5.77;100.00;99666.44;4998106;28;19918;-87
2021/09/26 13:34:41;;;;;;;;;;;;;;;5.74;100.00;99662.13;4995158;28;20395;-90
2021/09/26 13:37:12;;;;;;;;;;;;;;;5.72;100.00;99661.31;4997457;28;19917;-91
2021/09/26 13:39:45;;;;;;;;;;;;;;;5.82;100.00;99668.06;4996971;28;19960;-89
2021/09/26 13:42:12;;;;;;;;;;;;;;;5.73;100.00;99667.44;4995602;28;20036;-87
2021/09/26 13:44:38;;;;;;;;;;;;;;;5.73;100.00;99660.41;4996325;28;20007;-85
2021/09/26 13:47:05;;;;;;;;;;;;;;;5.82;100.00;99660.19;4996464;28;20405;-93
2021/09/26 13:49:30;;;;;;;;;;;;;;;5.76;100.00;99656.81;5001630;28;20015;-91
2021/09/26 13:51:56;;;;;;;;;;;;;;;5.78;100.00;99655.91;5015550;28;20004;-85
2021/09/26 13:54:21;;;;;;;;;;;;;;;5.66;100.00;99652.72;5015168;28;19921;-85
2021/09/26 13:56:46;;;;;;;;;;;;;;;5.73;100.00;99657.78;5015548;28;20008;-86
2021/09/26 13:59:12;;;;;;;;;;;;;;;5.81;100.00;99660.22;5015375;28;19936;-92
2021/09/26 14:01:37;;;;;;;;;;;;;;;5.86;100.00;99663.59;5014781;28;19917;-94
2021/09/26 14:04:03;;;;;;;;;;;;;;;5.79;100.00;99662.91;5012429;28;19918;-85
2021/09/26 14:06:28;;;;;;;;;;;;;;;5.86;100.00;99666.22;5015454;28;19925;-94
2021/09/26 14:08:54;;;;;;;;;;;;;;;5.69;100.00;99657.91;5012604;28;19917;-84
2021/09/26 14:11:19;;;;;;;;;;;;;;;5.75;100.00;99655.13;5015083;28;20379;-95
2021/09/26 14:13:45;;;;;;;;;;;;;;;5.80;100.00;99654.06;5015273;28;19948;-93
2021/09/26 14:16:11;;;;;;;;;;;;;;;5.81;100.00;99652.34;4989404;28;19918;-90
2021/09/26 14:18:37;;;;;;;;;;;;;;;5.79;100.00;99654.13;5013862;28;19968;-92
2021/09/26 14:21:04;;;;;;;;;;;;;;;5.85;100.00;99655.75;5015107;28;20451;-85
2021/09/26 14:23:29;;;;;;;;;;;;;;;5.84;100.00;99660.16;5013123;28;19949;-94
2021/09/26 14:25:55;;;;;;;;;;;;;;;5.83;100.00;99658.41;5015072;28;20402;-95
2021/09/26 14:28:21;;;;;;;;;;;;;;;5.87;100.00;99665.34;5015110;28;19921;-94
2021/09/26 14:30:46;;;;;;;;;;;;;;;5.91;100.00;99666.97;4997827;28;20392;-92
2021/09/26 14:33:12;;;;;;;;;;;;;;;5.94;100.00;99660.78;5014150;28;20373;-89
2021/09/26 14:35:37;;;;;;;;;;;;;;;5.90;100.00;99659.97;5015277;28;20385;-93
2021/09/26 14:38:03;;;;;;;;;;;;;;;5.87;100.00;99649.56;4997669;28;19918;-86
2021/09/26 14:40:30;;;;;;;;;;;;;;;5.89;100.00;99650.38;5014624;28;19917;-88
2021/09/26 14:42:55;;;;;;;;;;;;;;;5.95;100.00;99651.97;5015089;28;19921;-94
2021/09/26 14:45:22;;;;;;;;;;;;;;;5.95;100.00;99647.59;5013237;28;20408;-86
2021/09/26 14:47:47;;;;;;;;;;;;;;;5.99;100.00;99643.97;5011922;28;20331;-94
2021/09/26 14:50:13;;;;;;;;;;;;;;;5.91;100.00;99638.03;4996559;28;19925;-89
2021/09/26 14:52:39;;;;;;;;;;;;;;;5.96;100.00;99633.53;5014428;28;19928;-86
2021/09/26 14:55:05;;;;;;;;;;;;;;;6.01;100.00;99636.06;4997027;28;19917;-92
2021/09/26 14:57:31;;;;;;;;;;;;;;;5.93;100.00;99641.47;4988986;28;19924;-86
2021/09/26 14:59:56;;;;;;;;;;;;;;;5.93;100.00;99632.72;5014444;28;19921;-94
2021/09/26 15:02:22;;;;;;;;;;;;;;;5.94;100.00;99630.06;5013480;28;20299;-89
2021/09/26 15:04:48;;;;;;;;;;;;;;;5.99;100.00;99633.47;4995664;28;19964;-90
2021/09/26 15:07:13;;;;;;;;;;;;;;;6.02;100.00;99627.28;5014220;28;19918;-94
2021/09/26 15:09:39;;;;;;;;;;;;;;;6.07;100.00;99624.53;5014038;28;19921;-86
2021/09/26 15:12:04;;;;;;;;;;;;;;;6.14;100.00;99631.31;5014242;28;20254;-95
2021/09/26 15:14:30;;;;;;;;;;;;;;;6.08;100.00;99631.50;5012787;28;19965;-89
2021/09/26 15:16:55;;;;;;;;;;;;;;;6.01;100.00;99643.94;5013119;28;19917;-92
2021/09/26 15:19:20;;;;;;;;;;;;;;;6.08;100.00;99626.22;5012974;28;19922;-92
2021/09/26 15:21:45;;;;;;;;;;;;;;;6.06;100.00;99633.31;5013277;28;19946;-85
2021/09/26 15:24:11;;;;;;;;;;;;;;;6.11;100.00;99631.41;5013479;28;19917;-93
2021/09/26 15:26:36;;;;;;;;;;;;;;;5.97;100.00;99640.53;5012457;28;19940;-88
2021/09/26 15:29:03;;;;;;;;;;;;;;;6.06;100.00;99643.81;5012186;28;19922;-89
2021/09/26 15:31:28;;;;;;;;;;;;;;;6.02;100.00;99655.34;5013064;28;20012;-85
2021/09/26 15:33:54;;;;;;;;;;;;;;;6.02;100.00;99652.72;5012099;28;20056;-85
2021/09/26 15:36:20;;;;;;;;;;;;;;;6.03;100.00;99657.94;4995344;28;19991;-88
2021/09/26 15:38:45;;;;;;;;;;;;;;;6.09;100.00;99664.78;5013195;28;19918;-87
2021/09/26 15:41:11;;;;;;;;;;;;;;;6.06;100.00;99664.88;5012752;28;19918;-87
2021/09/26 15:43:37;;;;;;;;;;;;;;;6.05;100.00;99653.50;5012894;28;19917;-92
2021/09/26 15:46:03;;;;;;;;;;;;;;;6.12;100.00;99665.56;5011604;28;20419;-87
2021/09/26 15:48:29;;;;;;;;;;;;;;;6.07;100.00;99658.72;5010587;28;19921;-86
2021/09/26 15:50:55;;;;;;;;;;;;;;;6.05;100.00;99664.00;5008242;28;19921;-84
2021/09/26 15:53:22;;;;;;;;;;;;;;;6.06;100.00;99670.97;4992112;28;20017;-86
2021/09/26 15:55:47;;;;;;;;;;;;;;;6.03;100.00;99665.84;5008276;28;19965;-91
2021/09/26 15:58:13;;;;;;;;;;;;;;;6.09;100.00;99670.06;4991868;28;19930;-91
2021/09/26 16:00:40;;;;;;;;;;;;;;;6.09;100.00;99665.66;4992170;28;19980;-90
2021/09/26 16:03:05;;;;;;;;;;;;;;;6.07;100.00;99667.47;4991770;28;20361;-88
2021/09/26 16:05:33;;;;;;;;;;;;;;;5.99;100.00;99667.66;4993121;28;19945;-90
2021/09/26 16:07:59;;;;;;;;;;;;;;;6.01;100.00;99659.72;4991114;28;20328;-85
2021/09/26 16:10:25;;;;;;;;;;;;;;;5.94;100.00;99656.38;4993111;28;19925;-87
2021/09/26 16:12:51;;;;;;;;;;;;;;;6.03;99.99;99654.44;4991973;28;19944;-89
2021/09/26 16:15:18;;;;;;;;;;;;;;;6.03;100.00;99657.94;4992906;28;19914;-88
2021/09/26 16:17:43;;;;;;;;;;;;;;;6.04;99.77;99656.16;4990190;28;19922;-92
2021/09/26 16:20:09;;;;;;;;;;;;;;;5.98;99.79;99652.78;4990991;28;20305;-85
2021/09/26 16:22:35;;;;;;;;;;;;;;;6.00;99.91;99650.97;4991067;28;19914;-85
2021/09/26 16:25:00;;;;;;;;;;;;;;;6.07;99.91;99650.81;4992132;28;19965;-93
2021/09/26 16:27:25;;;;;;;;;;;;;;;6.05;99.43;99655.25;4991944;28;19989;-87
2021/09/26 16:29:51;;;;;;;;;;;;;;;5.97;99.71;99656.31;4992189;28;19926;-92
2021/09/26 16:32:19;;;;;;;;;;;;;;;5.97;99.69;99661.59;4991334;28;20012;-89
2021/09/26 16:34:44;;;;;;;;;;;;;;;5.93;99.84;99657.25;4989679;28;19945;-91
2021/09/26 16:37:09;;;;;;;;;;;;;;;5.92;100.00;99662.56;4991952;28;20364;-89
2021/09/26 16:39:35;;;;;;;;;;;;;;;5.90;99.68;99665.22;4991012;28;19918;-87
2021/09/26 16:42:00;;;;;;;;;;;;;;;6.04;99.49;99669.31;4991963;28;19922;-87
2021/09/26 16:44:26;;;;;;;;;;;;;;;6.00;99.16;99672.03;4991479;28;20053;-89
2021/09/26 16:46:51;;;;;;;;;;;;;;;6.06;99.30;99675.38;4990626;28;19925;-93
2021/09/26 16:49:17;;;;;;;;;;;;;;;5.99;99.37;99674.69;4989209;28;20373;-85
2021/09/26 16:51:43;;;;;;;;;;;;;;;5.99;99.53;99670.28;4991946;28;19922;-86
2021/09/26 16:54:08;;;;;;;;;;;;;;;6.05;99.42;99678.91;4990601;28;19932;-91
2021/09/26 16:56:34;;;;;;;;;;;;;;;6.04;99.44;99672.81;4992092;28;20060;-92
2021/09/26 16:59:00;;;;;;;;;;;;;;;6.04;99.87;99677.22;4992807;28;19918;-87
2021/09/26 17:01:26;;;;;;;;;;;;;;;5.99;99.62;99675.53;4990970;28;19925;-87
2021/09/26 17:03:56;;;;;;;;;;;;;;;5.94;100.00;99671.28;4991644;28;20385;-86
2021/09/26 17:06:22;;;;;;;;;;;;;;;5.93;100.00;99672.19;4992967;28;19965;-90
2021/09/26 17:08:47;;;;;;;;;;;;;;;5.97;100.00;99679.13;4992435;28;19921;-87
2021/09/26 17:11:12;;;;;;;;;;;;;;;6.00;100.00;99681.69;4981077;28;19924;-86
2021/09/26 17:13:40;;;;;;;;;;;;;;;5.99;100.00;99688.69;4991375;28;19921;-91
2021/09/26 17:16:05;;;;;;;;;;;;;;;5.89;100.00;99684.56;4990135;28;19929;-86
2021/09/26 17:18:31;;;;;;;;;;;;;;;6.00;100.00;99687.81;4989089;28;19922;-86
2021/09/26 17:20:57;;;;;;;;;;;;;;;6.03;100.00;99691.25;4991387;28;19933;-87
2021/09/26 17:23:23;;;;;;;;;;;;;;;5.95;100.00;99694.03;4988713;28;19925;-87
2021/09/26 17:25:49;;;;;;;;;;;;;;;5.89;100.00;99691.56;4991538;28;19972;-86
2021/09/26 17:28:15;;;;;;;;;;;;;;;6.03;100.00;99688.63;4991883;28;20377;-89
2021/09/26 17:30:41;;;;;;;;;;;;;;;6.07;100.00;99698.19;4993063;28;19925;-88
2021/09/26 17:33:07;;;;;;;;;;;;;;;6.05;100.00;99700.84;4982875;28;19930;-93
2021/09/26 17:35:33;;;;;;;;;;;;;;;5.95;100.00;99699.28;4991682;28;20293;-91
2021/09/26 17:37:59;;;;;;;;;;;;;;;6.07;100.00;99703.44;4989578;28;19996;-90
2021/09/26 17:40:26;;;;;;;;;;;;;;;6.04;100.00;99698.25;4991601;28;20012;-93
2021/09/26 17:42:53;;;;;;;;;;;;;;;6.10;99.94;99703.34;4991987;28;20015;-93
2021/09/26 17:45:18;;;;;;;;;;;;;;;6.09;99.89;99704.25;5011368;28;19941;-91
2021/09/26 17:47:43;;;;;;;;;;;;;;;6.10;100.00;99698.94;4995047;28;19925;-91
2021/09/26 17:50:10;;;;;;;;;;;;;;;6.04;99.99;99703.50;4994751;28;19921;-94
2021/09/26 17:52:36;;;;;;;;;;;;;;;6.02;100.00;99702.69;5011286;28;19918;-92
2021/09/26 17:55:03;;;;;;;;;;;;;;;5.99;99.60;99696.59;4995007;28;19960;-87
2021/09/26 17:57:28;;;;;;;;;;;;;;;6.06;99.33;99697.28;4995380;28;20004;-95
2021/09/26 17:59:53;;;;;;;;;;;;;;;6.11;99.18;99694.53;4994934;28;19957;-93
2021/09/26 18:02:18;;;;;;;;;;;;;;;6.04;99.39;99693.00;4994719;28;19922;-92
2021/09/26 18:04:44;;;;;;;;;;;;;;;6.02;99.49;99700.06;4992267;28;20453;-91
2021/09/26 18:07:09;;;;;;;;;;;;;;;6.00;99.59;99700.97;4994745;28;19921;-89
2021/09/26 18:09:34;;;;;;;;;;;;;;;6.04;99.65;99708.78;4993386;28;20407;-92
2021/09/26 18:12:00;;;;;;;;;;;;;;;6.04;99.51;99703.50;4993424;28;19929;-88
2021/09/26 18:14:25;;;;;;;;;;;;;;;6.02;99.37;99706.19;4992833;28;20281;-89
2021/09/26 18:16:51;;;;;;;;;;;;;;;5.95;99.36;99705.44;4988387;28;19975;-86
2021/09/26 18:19:17;;;;;;;;;;;;;;;5.99;100.00;99707.09;4992742;28;19918;-86
2021/09/26 18:21:42;;;;;;;;;;;;;;;5.99;99.32;99701.00;5009011;28;20391;-88
2021/09/26 18:24:10;;;;;;;;;;;;;;;5.94;99.70;99708.97;4993804;28;19932;-87
2021/09/26 18:26:36;;;;;;;;;;;;;;;5.97;99.59;99708.94;4995075;28;19928;-86
2021/09/26 18:29:03;;;;;;;;;;;;;;;5.85;99.95;99724.97;4992740;28;19937;-85
2021/09/26 18:31:28;;;;;;;;;;;;;;;5.89;99.92;99718.75;5009330;28;19957;-94
2021/09/26 18:33:53;;;;;;;;;;;;;;;5.95;100.00;99725.59;4992613;28;19996;-87
2021/09/26 18:36:21;;;;;;;;;;;;;;;5.96;99.77;99722.97;5010151;28;19961;-86
2021/09/26 18:38:47;;;;;;;;;;;;;;;5.89;99.50;99731.00;4992640;28;19926;-86
2021/09/26 18:41:14;;;;;;;;;;;;;;;5.92;100.00;99730.94;4995370;28;19932;-93
2021/09/26 18:43:39;;;;;;;;;;;;;;;5.92;99.76;99739.72;4993911;28;19964;-84
2021/09/26 18:46:05;;;;;;;;;;;;;;;5.83;100.00;99743.41;5010187;28;19918;-91
2021/09/26 18:48:33;;;;;;;;;;;;;;;5.89;100.00;99741.53;4990662;28;20025;-90
2021/09/26 18:50:59;;;;;;;;;;;;;;;5.90;99.74;99738.84;5009780;28;19945;-88
2021/09/26 18:53:25;;;;;;;;;;;;;;;5.90;99.76;99741.50;4994423;28;20370;-90
2021/09/26 18:55:51;;;;;;;;;;;;;;;5.93;99.89;99751.09;4991621;28;19932;-92
2021/09/26 18:58:16;;;;;;;;;;;;;;;5.86;99.69;99742.47;4992887;28;19926;-89
2021/09/26 19:00:42;;;;;;;;;;;;;;;5.86;99.69;99742.47;4991112;28;19940;-92
2021/09/26 19:03:09;;;;;;;;;;;;;;;5.92;99.98;99744.97;4993165;28;20400;-94
2021/09/26 19:05:34;;;;;;;;;;;;;;;5.87;99.53;99744.22;4993368;28;19922;-85
2021/09/26 19:07:59;;;;;;;;;;;;;;;5.95;99.44;99737.00;5009374;28;20500;-88
2021/09/26 19:10:26;;;;;;;;;;;;;;;5.91;98.81;99740.59;4983046;28;19914;-89
2021/09/26 19:12:51;;;;;;;;;;;;;;;5.81;99.29;99737.34;5008884;28;19922;-94
2021/09/26 19:15:18;;;;;;;;;;;;;;;5.82;99.30;99741.69;4993792;28;20293;-88
2021/09/26 19:17:44;;;;;;;;;;;;;;;5.87;99.70;99740.72;5006286;28;19918;-89
2021/09/26 19:20:10;;;;;;;;;;;;;;;5.90;99.22;99744.13;4991776;28;19924;-89
2021/09/26 19:22:36;;;;;;;;;;;;;;;5.85;99.18;99758.31;4992159;28;20377;-93
2021/09/26 19:25:02;;;;;;;;;;;;;;;5.90;98.68;99757.28;4992599;28;19928;-85
2021/09/26 19:27:27;;;;;;;;;;;;;;;5.86;98.89;99755.63;4992718;28;19918;-93
2021/09/26 19:29:58;;;;;;;;;;;;;;;5.79;98.75;99751.41;4992910;28;19914;-91
2021/09/26 19:32:23;;;;;;;;;;;;;;;5.85;98.97;99750.41;4992343;28;19957;-85
2021/09/26 19:34:49;;;;;;;;;;;;;;;5.81;98.83;99747.84;4991603;28;19972;-88
2021/09/26 19:37:14;;;;;;;;;;;;;;;5.89;98.33;99744.16;4991192;28;20366;-85
2021/09/26 19:39:39;;;;;;;;;;;;;;;5.87;98.58;99744.22;4991536;28;19973;-92
2021/09/26 19:42:04;;;;;;;;;;;;;;;5.83;98.44;99734.66;4989186;28;19953;-85
2021/09/26 19:44:30;;;;;;;;;;;;;;;5.82;98.50;99735.56;4992746;28;19922;-87
2021/09/26 19:46:57;;;;;;;;;;;;;;;5.83;98.38;99734.66;4991416;28;19940;-91
2021/09/26 19:49:22;;;;;;;;;;;;;;;5.83;98.55;99737.31;4990360;28;19926;-87
2021/09/26 19:51:48;;;;;;;;;;;;;;;5.83;98.06;99742.56;4989047;28;19976;-85
2021/09/26 19:54:13;;;;;;;;;;;;;;;5.79;97.80;99740.88;4991437;28;19913;-84
2021/09/26 19:56:39;;;;;;;;;;;;;;;5.82;98.01;99741.69;4991261;28;19918;-87
2021/09/26 19:59:05;;;;;;;;;;;;;;;5.88;98.46;99738.03;5007876;28;20324;-93
2021/09/26 20:01:30;;;;;;;;;;;;;;;5.79;98.38;99746.16;4991059;28;19988;-92
2021/09/26 20:03:57;;;;;;;;;;;;;;;5.90;98.46;99749.38;4989883;28;20012;-85
2021/09/26 20:06:27;;;;;;;;;;;;;;;5.82;97.69;99746.97;4991270;28;19996;-84
2021/09/26 20:08:53;;;;;;;;;;;;;;;5.72;97.79;99748.06;4992256;28;20029;-89
2021/09/26 20:11:20;;;;;;;;;;;;;;;5.75;98.13;99745.38;5007339;28;19997;-91
2021/09/26 20:13:46;;;;;;;;;;;;;;;5.74;98.14;99743.63;4992187;28;19918;-93
2021/09/26 20:16:11;;;;;;;;;;;;;;;5.73;97.92;99747.19;4992293;28;21022;-87
2021/09/26 20:18:39;;;;;;;;;;;;;;;5.81;98.27;99755.75;4990892;28;19918;-89
2021/09/26 20:21:06;;;;;;;;;;;;;;;5.73;98.06;99759.47;4991063;28;19917;-93
2021/09/26 20:23:33;;;;;;;;;;;;;;;5.78;98.54;99760.22;4992209;28;20125;-90
2021/09/26 20:25:58;;;;;;;;;;;;;;;5.74;98.05;99746.25;4991207;28;19918;-94
2021/09/26 20:28:24;;;;;;;;;;;;;;;5.75;98.16;99745.38;4990915;28;19924;-87
2021/09/26 20:30:50;;;;;;;;;;;;;;;5.72;98.18;99747.22;5007400;28;20008;-94
2021/09/26 20:33:17;;;;;;;;;;;;;;;5.82;97.98;99756.59;4990250;28;20025;-89
2021/09/26 20:35:43;;;;;;;;;;;;;;;5.69;98.15;99749.91;4982271;28;19922;-85
2021/09/26 20:38:08;;;;;;;;;;;;;;;5.79;97.90;99749.66;4992007;28;19933;-92
2021/09/26 20:40:34;;;;;;;;;;;;;;;5.68;97.90;99743.78;4991990;28;19929;-87
2021/09/26 20:43:01;;;;;;;;;;;;;;;5.77;98.74;99750.59;5005515;28;19921;-85
2021/09/26 20:45:28;;;;;;;;;;;;;;;5.75;97.58;99750.63;4991848;28;20365;-85
2021/09/26 20:47:54;;;;;;;;;;;;;;;5.77;97.92;99750.59;4990455;28;20025;-93
2021/09/26 20:50:20;;;;;;;;;;;;;;;5.69;97.79;99760.44;5005287;28;20016;-92
2021/09/26 20:52:45;;;;;;;;;;;;;;;5.73;97.58;99755.06;5009975;28;19921;-84
2021/09/26 20:55:14;;;;;;;;;;;;;;;5.72;98.10;99757.72;5010510;28;19920;-85
2021/09/26 20:57:40;;;;;;;;;;;;;;;5.71;97.89;99763.88;4993423;28;20341;-85
2021/09/26 21:00:06;;;;;;;;;;;;;;;5.64;97.81;99760.53;5010032;28;19979;-88
2021/09/26 21:02:31;;;;;;;;;;;;;;;5.78;97.04;99765.47;5011672;28;19913;-85
2021/09/26 21:04:57;;;;;;;;;;;;;;;5.71;97.07;99763.88;5009977;28;20035;-94
2021/09/26 21:07:23;;;;;;;;;;;;;;;5.63;97.07;99767.56;4993679;28;20368;-85
2021/09/26 21:09:48;;;;;;;;;;;;;;;5.63;97.24;99772.81;5011143;28;19917;-84
2021/09/26 21:12:14;;;;;;;;;;;;;;;5.72;97.34;99770.88;5011310;28;19948;-87
2021/09/26 21:14:39;;;;;;;;;;;;;;;5.63;97.17;99767.56;5011143;28;20369;-85
2021/09/26 21:17:04;;;;;;;;;;;;;;;5.61;97.64;99779.84;4993709;28;19922;-86
2021/09/26 21:19:29;;;;;;;;;;;;;;;5.59;97.49;99775.53;5011397;28;20292;-88
2021/09/26 21:21:55;;;;;;;;;;;;;;;5.55;97.71;99777.38;4989765;28;19922;-86
2021/09/26 21:24:20;;;;;;;;;;;;;;;5.54;97.94;99775.66;4989261;28;19925;-84
2021/09/26 21:26:45;;;;;;;;;;;;;;;5.57;97.77;99774.72;5015140;28;19918;-85
2021/09/26 21:29:11;;;;;;;;;;;;;;;5.62;97.39;99771.06;4997363;28;19918;-93
2021/09/26 21:31:36;;;;;;;;;;;;;;;5.63;96.95;99766.66;5014667;28;20243;-91
2021/09/26 21:34:02;;;;;;;;;;;;;;;5.61;96.91;99769.34;5013486;28;19932;-85
2021/09/26 21:36:27;;;;;;;;;;;;;;;5.57;97.35;99766.84;5014787;28;19914;-93
2021/09/26 21:38:52;;;;;;;;;;;;;;;5.57;97.38;99759.81;5013412;28;19964;-86
2021/09/26 21:41:18;;;;;;;;;;;;;;;5.57;97.24;99765.06;5014392;28;19928;-84
2021/09/26 21:43:43;;;;;;;;;;;;;;;5.65;97.46;99767.53;5014585;28;19949;-85
2021/09/26 21:46:09;;;;;;;;;;;;;;;5.57;97.25;99769.47;5014198;28;19967;-90
2021/09/26 21:48:34;;;;;;;;;;;;;;;5.64;96.70;99769.28;5013352;28;19921;-85
2021/09/26 21:51:00;;;;;;;;;;;;;;;5.59;96.67;99775.53;5013127;28;20377;-93
2021/09/26 21:53:25;;;;;;;;;;;;;;;5.58;96.58;99772.03;4989136;28;20327;-93
2021/09/26 21:55:51;;;;;;;;;;;;;;;5.56;96.81;99776.47;5014494;28;20372;-86
2021/09/26 21:58:17;;;;;;;;;;;;;;;5.52;97.12;99777.47;4997093;28;19927;-85
2021/09/26 22:00:45;;;;;;;;;;;;;;;5.44;97.25;99779.34;4996769;28;19925;-85
2021/09/26 22:03:13;;;;;;;;;;;;;;;5.56;97.12;99773.00;5013390;28;20008;-86
2021/09/26 22:05:38;;;;;;;;;;;;;;;5.59;97.87;99768.50;4996638;28;19921;-93
2021/09/26 22:08:04;;;;;;;;;;;;;;;5.61;98.86;99774.59;5013178;28;19926;-93
2021/09/26 22:10:30;;;;;;;;;;;;;;;5.64;98.80;99774.53;5013585;28;19921;-87
2021/09/26 22:12:56;;;;;;;;;;;;;;;5.60;98.98;99778.16;4997226;28;19928;-90
2021/09/26 22:15:23;;;;;;;;;;;;;;;5.59;99.16;99791.31;4997514;28;19976;-94
2021/09/26 22:17:48;;;;;;;;;;;;;;;5.55;99.38;99789.66;5013659;28;19975;-92
2021/09/26 22:20:15;;;;;;;;;;;;;;;5.67;98.86;99788.53;5013076;28;19988;-87
2021/09/26 22:22:41;;;;;;;;;;;;;;;5.62;99.14;99792.09;5013696;28;19956;-94
2021/09/26 22:25:08;;;;;;;;;;;;;;;5.61;99.02;99795.63;4987721;28;19917;-87
2021/09/26 22:27:34;;;;;;;;;;;;;;;5.59;99.13;99792.19;4987484;28;19917;-86
2021/09/26 22:29:59;;;;;;;;;;;;;;;5.64;98.90;99792.06;5011862;28;19913;-87
2021/09/26 22:32:24;;;;;;;;;;;;;;;5.53;98.46;99784.41;4996844;28;19924;-94
2021/09/26 22:34:50;;;;;;;;;;;;;;;5.50;98.39;99776.59;5011858;28;19921;-93
2021/09/26 22:37:15;;;;;;;;;;;;;;;5.61;98.44;99782.47;5014101;28;19961;-92
2021/09/26 22:39:40;;;;;;;;;;;;;;;5.52;98.75;99787.97;5014513;28;20036;-93
2021/09/26 22:42:05;;;;;;;;;;;;;;;5.47;98.36;99787.19;5012701;28;19953;-93
2021/09/26 22:44:31;;;;;;;;;;;;;;;5.40;98.09;99785.59;5013012;28;20449;-87
2021/09/26 22:46:56;;;;;;;;;;;;;;;5.39;98.67;99778.59;5012941;28;20484;-94
2021/09/26 22:49:21;;;;;;;;;;;;;;;5.42;98.03;99768.88;4995035;28;19976;-90
2021/09/26 22:51:47;;;;;;;;;;;;;;;5.39;98.04;99779.50;5014059;28;20265;-88
2021/09/26 22:54:12;;;;;;;;;;;;;;;5.37;97.95;99775.16;5014111;28;19960;-93
2021/09/26 22:56:37;;;;;;;;;;;;;;;5.41;98.40;99771.56;4988788;28;19988;-85
2021/09/26 22:59:03;;;;;;;;;;;;;;;5.33;97.52;99766.47;5012271;28;20435;-85
2021/09/26 23:01:31;;;;;;;;;;;;;;;5.41;97.23;99766.31;4996352;28;19925;-94
2021/09/26 23:03:56;;;;;;;;;;;;;;;5.35;97.72;99763.81;4994620;28;20293;-86
2021/09/26 23:47:39;;;;;;;;;;;;;;;5.18;95.78;99764.16;4973691;28;19981;-92
2021/09/26 23:50:05;;;;;;;;;;;;;;;5.19;96.22;99766.75;4967046;28;19922;-88
2021/09/26 23:52:31;;;;;;;;;;;;;;;5.16;96.21;99763.34;4973712;28;19918;-84
2021/09/26 23:54:56;;;;;;;;;;;;;;;5.14;96.04;99758.13;4965173;28;19921;-90
2021/09/26 23:57:21;;;;;;;;;;;;;;;5.11;96.25;99757.34;4965884;28;20355;-86
2021/09/26 23:59:46;;;;;;;;;;;;;;;5.26;100.00;99763.13;4984039;28;20423;-85
